Time;durP1;ratioP1;P1;durP2;ratioP2;P2;SDS_P1;SDS_P2;PMS_P1;PMS_P2;Temp;Humidity;BMP_temperature;BMP_pressure;BME280_temperature;BME280_humidity;BME280_pressure;Samples;Min_cycle;Max_cycle;Signal;HPM_P1;HPM_P2
2021/05/14 04:16:07;;;;;;;2.00;1.43;;;;;;;7.75;83.21;98023.31;5587166;23;20448;-77
2021/05/14 04:18:36;;;;;;;3.80;1.30;;;;;;;7.64;83.49;98030.38;4937002;29;20040;-77
2021/05/14 04:21:02;;;;;;;1.30;1.20;;;;;;;7.63;83.48;98026.09;4936966;29;20031;-77
2021/05/14 04:23:27;;;;;;;2.15;1.35;;;;;;;7.78;83.34;98023.22;4936845;29;20040;-77
2021/05/14 04:25:53;;;;;;;3.47;1.30;;;;;;;7.92;83.35;98020.41;4936771;29;20380;-77
2021/05/14 04:28:18;;;;;;;1.60;1.30;;;;;;;7.87;82.73;98019.63;4936533;29;20032;-77
2021/05/14 04:30:44;;;;;;;1.63;1.38;;;;;;;7.76;83.59;98022.44;4987393;23;20512;-72
2021/05/14 04:33:09;;;;;;;1.42;1.30;;;;;;;7.77;83.27;98021.53;4935519;29;20028;-72
2021/05/14 04:35:34;;;;;;;1.52;1.42;;;;;;;7.89;83.26;98026.47;4936632;29;20082;-72
2021/05/14 04:38:00;;;;;;;2.47;1.25;;;;;;;7.99;83.04;98028.00;4936373;29;20028;-72
2021/05/14 04:40:26;;;;;;;1.42;1.30;;;;;;;8.08;83.23;98026.13;4936728;29;20028;-72
2021/05/14 04:42:51;;;;;;;1.88;1.50;;;;;;;8.04;83.27;98021.91;4919372;29;20473;-72
2021/05/14 04:45:17;;;;;;;2.10;1.30;;;;;;;8.08;82.15;98026.13;4936537;29;20034;-72
2021/05/14 04:47:42;;;;;;;2.22;1.20;;;;;;;7.79;83.66;98024.97;4936263;29;20036;-72
2021/05/14 04:50:08;;;;;;;1.40;1.20;;;;;;;7.92;83.28;98026.41;4936342;29;20488;-72
2021/05/14 04:52:36;;;;;;;2.63;1.50;;;;;;;7.86;83.89;98028.25;4919180;29;20597;-72
2021/05/14 04:55:01;;;;;;;1.35;1.20;;;;;;;7.95;83.04;98026.34;4936295;29;20366;-72
2021/05/14 04:57:26;;;;;;;4.05;1.48;;;;;;;8.04;82.63;98025.31;4936001;29;20083;-72
2021/05/14 04:59:52;;;;;;;2.75;1.25;;;;;;;7.89;81.75;98018.75;4936255;29;20059;-72
2021/05/14 05:02:18;;;;;;;1.75;1.50;;;;;;;8.27;81.08;98023.97;4936195;29;20500;-72
2021/05/14 05:04:43;;;;;;;2.05;1.40;;;;;;;8.17;81.52;98025.91;4936065;29;20066;-72
2021/05/14 05:07:09;;;;;;;1.80;1.08;;;;;;;8.44;80.73;98025.38;4935910;29;20023;-72
2021/05/14 05:09:34;;;;;;;3.42;1.40;;;;;;;8.64;79.68;98026.66;4918832;29;20039;-72
2021/05/14 05:12:00;;;;;;;4.72;1.98;;;;;;;8.89;79.72;98022.63;4935983;29;20036;-72
2021/05/14 05:14:25;;;;;;;1.20;1.10;;;;;;;8.99;78.04;98025.84;4935785;29;20032;-73
2021/05/14 05:16:51;;;;;;;5.28;1.75;;;;;;;9.01;78.24;98031.84;4935646;29;20024;-72
2021/05/14 05:19:17;;;;;;;1.80;1.20;;;;;;;9.15;76.87;98028.94;4935850;29;20019;-72
2021/05/14 05:21:42;;;;;;;2.22;1.33;;;;;;;9.24;77.30;98028.72;4935716;29;20512;-73
2021/05/14 05:24:08;;;;;;;2.65;1.40;;;;;;;9.39;76.50;98027.47;4935740;29;20344;-72
2021/05/14 05:26:33;;;;;;;1.48;1.23;;;;;;;9.50;75.80;98026.28;4935707;29;20123;-73
2021/05/14 05:28:59;;;;;;;1.50;1.10;;;;;;;9.61;74.47;98022.56;4935746;29;20167;-72
2021/05/14 05:31:24;;;;;;;1.35;1.20;;;;;;;9.69;75.29;98028.41;4935553;29;20031;-73
2021/05/14 05:33:50;;;;;;;3.47;1.15;;;;;;;9.72;74.63;98031.78;4935475;29;20031;-73
2021/05/14 05:36:15;;;;;;;2.45;1.42;;;;;;;9.94;73.42;98026.84;4935442;29;20031;-72
2021/05/14 05:38:40;;;;;;;1.40;1.15;;;;;;;10.01;74.18;98033.56;4935454;29;20389;-72
2021/05/14 05:41:05;;;;;;;2.22;1.30;;;;;;;10.10;72.01;98032.44;4935480;29;20384;-73
2021/05/14 05:43:31;;;;;;;3.60;1.25;;;;;;;10.00;71.85;98042.19;4935139;29;20032;-73
2021/05/14 05:45:56;;;;;;;2.28;1.20;;;;;;;9.92;71.55;98033.81;4935395;29;20083;-72
2021/05/14 05:48:21;;;;;;;3.45;1.15;;;;;;;10.27;70.64;98044.94;4935242;29;20121;-72
2021/05/14 05:50:47;;;;;;;2.22;1.30;;;;;;;10.21;71.01;98042.50;4935213;29;20023;-72
2021/05/14 05:53:12;;;;;;;1.98;1.35;;;;;;;10.60;68.71;98042.28;4935118;29;20039;-73
2021/05/14 05:55:38;;;;;;;0.93;0.93;;;;;;;10.75;68.13;98052.16;4935415;29;20056;-73
2021/05/14 05:58:08;;;;;;;2.10;1.27;;;;;;;11.03;67.47;98058.19;4934980;29;20031;-73
2021/05/14 06:00:33;;;;;;;2.65;1.25;;;;;;;11.16;68.00;98052.63;4935002;29;20114;-72
2021/05/14 06:03:00;;;;;;;3.33;1.23;;;;;;;11.26;66.94;98054.00;4935237;29;20156;-73
2021/05/14 06:05:25;;;;;;;2.88;1.40;;;;;;;11.44;66.08;98063.78;4935010;29;20034;-72
2021/05/14 06:07:51;;;;;;;2.22;1.45;;;;;;;11.41;65.65;98057.84;4935094;29;20027;-72
2021/05/14 06:10:16;;;;;;;1.30;1.08;;;;;;;11.41;65.87;98056.13;4934924;29;20027;-72
2021/05/14 06:12:42;;;;;;;4.35;0.93;;;;;;;11.51;66.76;98057.53;4935095;29;20035;-73
2021/05/14 06:15:07;;;;;;;2.53;1.48;;;;;;;11.64;65.23;98059.69;4934943;29;20024;-73
2021/05/14 06:17:38;;;;;;;2.30;1.10;;;;;;;11.66;65.95;98055.31;4934843;29;20024;-73
2021/05/14 06:20:05;;;;;;;3.85;1.20;;;;;;;11.70;65.85;98064.66;4934762;29;20445;-73
2021/05/14 06:22:31;;;;;;;3.03;0.90;;;;;;;12.22;63.62;98068.06;4935214;29;20051;-73
2021/05/14 06:24:56;;;;;;;1.25;0.98;;;;;;;12.27;63.83;98068.75;4934825;29;20492;-73
2021/05/14 06:27:21;;;;;;;5.88;2.78;;;;;;;13.16;61.51;98068.00;4934708;29;20122;-73
2021/05/14 06:29:47;;;;;;;1.92;0.90;;;;;;;13.05;60.30;98074.47;4934571;29;20027;-73
2021/05/14 06:32:13;;;;;;;1.55;0.90;;;;;;;12.60;62.17;98075.28;4934877;29;20114;-73
2021/05/14 06:34:38;;;;;;;1.48;0.85;;;;;;;13.89;58.27;98070.19;4934589;29;20540;-72
2021/05/14 06:37:04;;;;;;;10.60;1.48;;;;;;;13.95;58.00;98064.69;4934561;29;20035;-73
2021/05/14 06:39:29;;;;;;;2.50;0.70;;;;;;;14.17;57.69;98068.97;4917598;29;20056;-73
2021/05/14 06:41:54;;;;;;;2.55;1.00;;;;;;;14.09;57.54;98061.50;4934844;29;20063;-73
2021/05/14 06:44:20;;;;;;;3.40;1.63;;;;;;;13.44;59.73;98070.34;4934650;29;20019;-72
2021/05/14 06:46:45;;;;;;;1.17;1.00;;;;;;;12.89;61.04;98075.09;4934591;29;20035;-72
2021/05/14 06:49:11;;;;;;;1.58;1.05;;;;;;;12.82;62.30;98077.09;4917581;29;20035;-73
2021/05/14 06:51:36;;;;;;;1.48;0.95;;;;;;;13.04;62.08;98074.50;4934625;29;20028;-72
2021/05/14 06:54:02;;;;;;;1.05;0.82;;;;;;;13.50;60.72;98073.53;4934464;29;20114;-72
2021/05/14 06:56:28;;;;;;;2.45;0.93;;;;;;;15.08;56.25;98070.00;4937348;29;20036;-73
2021/05/14 06:58:54;;;;;;;1.92;0.80;;;;;;;16.17;51.47;98065.47;4938451;29;20059;-73
2021/05/14 07:01:21;;;;;;;2.58;0.90;;;;;;;19.37;43.96;98051.16;4938304;29;20110;-73
2021/05/14 07:03:46;;;;;;;2.30;0.80;;;;;;;20.33;41.23;98064.91;4938173;29;20107;-73
2021/05/14 07:06:13;;;;;;;3.05;0.80;;;;;;;19.61;42.77;98067.97;4938098;29;20114;-73
2021/05/14 07:08:39;;;;;;;1.65;0.85;;;;;;;22.52;36.28;98054.94;4938337;29;20397;-73
2021/05/14 07:11:04;;;;;;;2.70;1.13;;;;;;;21.86;38.41;98067.06;4938129;29;20058;-73
2021/05/14 07:13:29;;;;;;;1.38;0.60;;;;;;;23.12;34.80;98064.28;4938167;29;20628;-73
2021/05/14 07:15:55;;;;;;;2.55;1.23;;;;;;;21.90;36.92;98068.50;4938110;29;20400;-73
2021/05/14 07:18:21;;;;;;;1.45;0.60;;;;;;;22.75;35.13;98066.34;4937907;29;20163;-73
2021/05/14 07:20:46;;;;;;;1.88;0.55;;;;;;;22.64;36.04;98067.19;4937922;29;20032;-73
2021/05/14 07:23:11;;;;;;;2.97;0.90;;;;;;;23.39;34.11;98060.34;4937984;29;20019;-73
2021/05/14 07:25:36;;;;;;;1.33;0.60;;;;;;;23.78;33.19;98058.88;4937966;29;20130;-73
2021/05/14 07:28:02;;;;;;;3.17;2.10;;;;;;;22.54;34.83;98053.88;4937761;29;20024;-73
2021/05/14 07:30:27;;;;;;;3.15;0.80;;;;;;;22.84;34.51;98063.81;4937560;29;20027;-73
2021/05/14 07:32:53;;;;;;;3.47;0.90;;;;;;;23.56;33.73;98057.16;4937837;29;20066;-74
2021/05/14 07:35:18;;;;;;;1.33;0.40;;;;;;;24.09;32.28;98054.50;4937582;29;20087;-74
2021/05/14 07:37:43;;;;;;;1.95;0.70;;;;;;;23.65;33.71;98056.44;4937768;29;20111;-74
2021/05/14 07:40:10;;;;;;;1.27;0.98;;;;;;;24.28;32.47;98053.78;4920420;29;20497;-73
2021/05/14 07:42:35;;;;;;;3.50;0.50;;;;;;;23.13;33.72;98057.19;4937687;29;20023;-74
2021/05/14 07:45:00;;;;;;;0.93;0.50;;;;;;;24.99;31.00;98049.31;4937583;29;20425;-73
2021/05/14 07:47:26;;;;;;;0.82;0.60;;;;;;;24.36;31.41;98046.88;4937467;29;20485;-73
2021/05/14 07:49:51;;;;;;;1.85;0.63;;;;;;;24.98;30.11;98055.59;4933407;29;20024;-73
2021/05/14 07:52:17;;;;;;;1.10;0.43;;;;;;;24.51;30.63;98049.16;4937468;29;20663;-73
2021/05/14 07:54:42;;;;;;;0.88;0.60;;;;;;;25.95;29.61;98052.22;4937249;29;20043;-74
2021/05/14 07:57:08;;;;;;;1.27;0.50;;;;;;;25.96;30.17;98059.19;4937095;29;20533;-74
2021/05/14 07:59:33;;;;;;;1.83;0.55;;;;;;;24.35;31.32;98065.50;4937292;29;20031;-74
2021/05/14 08:01:58;;;;;;;2.97;1.10;;;;;;;22.19;34.71;98064.53;4937320;29;20027;-73
2021/05/14 08:04:24;;;;;;;0.57;0.40;;;;;;;20.40;37.53;98069.63;4934683;29;20110;-74
2021/05/14 08:06:49;;;;;;;1.98;0.40;;;;;;;23.09;33.41;98061.88;4936414;29;20027;-73
2021/05/14 08:09:20;;;;;;;1.10;0.50;;;;;;;25.15;29.60;98048.84;4936888;29;20032;-74
2021/05/14 08:11:45;;;;;;;1.27;0.50;;;;;;;21.39;35.86;98066.16;4933192;29;20024;-74
2021/05/14 08:14:12;;;;;;;3.42;0.50;;;;;;;20.15;39.86;98067.84;4936832;29;20032;-73
2021/05/14 08:16:37;;;;;;;1.02;0.50;;;;;;;16.91;47.42;98079.88;4936575;29;20042;-73
2021/05/14 08:19:02;;;;;;;0.45;0.32;;;;;;;19.37;41.39;98059.88;4936812;29;20040;-74
2021/05/14 08:21:28;;;;;;;1.05;0.45;;;;;;;20.77;38.14;98061.81;4936634;29;20031;-74
2021/05/14 08:23:53;;;;;;;1.63;0.70;;;;;;;20.49;37.16;98058.47;4936705;29;20029;-73
2021/05/14 08:26:18;;;;;;;0.30;0.30;;;;;;;19.86;38.91;98056.66;4936566;29;20028;-72
2021/05/14 08:28:44;;;;;;;2.58;0.60;;;;;;;19.82;39.22;98062.22;4936663;29;20038;-73
2021/05/14 08:31:09;;;;;;;0.73;0.47;;;;;;;19.40;40.05;98061.50;4936239;29;20493;-73
2021/05/14 08:33:35;;;;;;;2.67;0.70;;;;;;;21.98;35.41;98047.66;4936405;29;20028;-72
2021/05/14 08:36:00;;;;;;;0.70;0.47;;;;;;;22.93;34.18;98056.16;4936620;29;20036;-73
2021/05/14 08:38:26;;;;;;;0.95;0.50;;;;;;;20.79;37.48;98063.41;4930195;29;20114;-72
2021/05/14 08:40:53;;;;;;;0.52;0.50;;;;;;;19.62;40.52;98067.03;4923751;29;20063;-72
2021/05/14 08:43:18;;;;;;;3.00;2.17;;;;;;;17.33;44.49;98073.19;4927074;29;20027;-72
2021/05/14 08:45:43;;;;;;;0.63;0.50;;;;;;;16.19;47.60;98074.06;4926649;29;20043;-72
2021/05/14 08:48:13;;;;;;;1.02;0.60;;;;;;;16.97;46.25;98074.34;4925753;29;20036;-72
2021/05/14 08:50:40;;;;;;;;;;;;;;;16.46;46.87;98068.34;4927938;29;20040;-72
2021/05/14 08:53:05;;;;;;;1.23;0.88;;;;;;;17.83;45.07;98070.28;4910572;29;19919;-73
2021/05/14 08:55:32;;;;;;;1.00;0.80;;;;;;;17.57;45.55;98069.16;4927641;29;20043;-72
2021/05/14 08:57:58;;;;;;;7.63;0.90;;;;;;;17.00;47.17;98079.38;4926369;29;20039;-72
2021/05/14 09:00:23;;;;;;;3.20;0.70;;;;;;;16.77;47.65;98074.56;4924801;29;20393;-71
2021/05/14 09:02:50;;;;;;;2.85;0.70;;;;;;;16.38;48.91;98076.56;4921640;29;20039;-71
2021/05/14 09:05:26;;;;;;;0.65;0.60;;;;;;;16.13;48.82;98077.00;4927220;29;20027;-71
2021/05/14 09:07:55;;;;;;;1.52;1.13;;;;;;;15.88;49.72;98071.38;4927548;29;20028;-71
2021/05/14 09:10:21;;;;;;;4.53;0.90;;;;;;;15.65;50.96;98078.56;4925046;29;20035;-71
2021/05/14 09:12:46;;;;;;;2.13;0.95;;;;;;;15.78;51.47;98070.16;4921497;29;20493;-72
2021/05/14 09:15:27;;;;;;;2.40;0.80;;;;;;;16.02;50.54;98074.13;4925419;29;20028;-71
2021/05/14 09:18:19;;;;;;;10.27;2.22;;;;;;;16.63;49.49;98068.28;4925265;29;20035;-71
2021/05/14 09:20:47;;;;;;;3.70;0.77;;;;;;;19.78;41.81;98056.34;4919493;29;20038;-71
2021/05/14 09:23:15;;;;;;;2.30;0.45;;;;;;;22.25;36.38;98048.22;4925388;29;20032;-72
2021/05/14 09:26:05;;;;;;;1.60;0.80;;;;;;;23.70;31.69;98054.25;4925643;29;20426;-72
2021/05/14 09:28:39;;;;;;;3.40;0.50;;;;;;;20.46;37.73;98060.47;4921180;29;20114;-72
2021/05/14 09:31:04;;;;;;;2.05;0.60;;;;;;;19.28;40.49;98068.38;4921009;29;20086;-71
2021/05/14 09:33:30;;;;;;;0.93;0.47;;;;;;;18.73;42.65;98064.84;4925484;29;20039;-71
2021/05/14 09:36:01;;;;;;;1.48;0.73;;;;;;;18.37;42.52;98061.84;4919461;29;20058;-72
2021/05/14 09:38:26;;;;;;;1.88;0.50;;;;;;;18.20;42.62;98063.72;4919370;29;20056;-71
2021/05/14 09:40:52;;;;;;;1.05;0.50;;;;;;;18.31;42.09;98060.44;4926590;29;20111;-72
2021/05/14 09:43:19;;;;;;;1.55;0.77;;;;;;;17.70;43.20;98070.16;4921078;29;20066;-72
2021/05/14 09:45:44;;;;;;;4.25;0.70;;;;;;;18.54;43.56;98051.16;4903914;29;20032;-71
2021/05/14 09:48:18;;;;;;;0.70;0.50;;;;;;;17.62;44.59;98063.66;4920830;29;20035;-72
2021/05/14 09:50:46;;;;;;;3.08;0.50;;;;;;;17.23;45.11;98065.00;4923427;29;20482;-73
2021/05/14 09:53:14;;;;;;;0.68;0.60;;;;;;;18.40;44.42;98053.78;4920937;29;20106;-73
2021/05/14 09:55:47;;;;;;;3.25;0.60;;;;;;;20.97;38.65;98049.84;4920743;29;20031;-73
2021/05/14 09:58:16;;;;;;;0.82;0.45;;;;;;;21.35;37.80;98046.25;4923048;29;20028;-73
2021/05/14 10:00:42;;;;;;;2.28;0.60;;;;;;;22.22;36.26;98043.16;4923150;29;20765;-73
2021/05/14 10:03:09;;;;;;;3.22;0.60;;;;;;;22.31;34.94;98042.47;4925841;29;20118;-73
2021/05/14 10:05:36;;;;;;;3.40;0.60;;;;;;;23.71;34.24;98040.03;4926670;29;20031;-73
2021/05/14 10:08:03;;;;;;;1.63;0.50;;;;;;;24.70;29.85;98038.63;4926478;29;21498;-73
2021/05/14 10:10:30;;;;;;;1.50;0.40;;;;;;;22.87;31.88;98043.38;4923496;29;20062;-73
2021/05/14 10:12:56;;;;;;;1.35;0.60;;;;;;;21.41;35.09;98045.78;4920561;29;20500;-73
2021/05/14 10:15:22;;;;;;;2.50;0.60;;;;;;;19.69;39.34;98049.91;4926216;29;20032;-73
2021/05/14 10:17:51;;;;;;;2.17;0.63;;;;;;;19.06;41.34;98053.16;4926197;29;20019;-73
2021/05/14 10:20:19;;;;;;;1.33;0.50;;;;;;;18.46;42.47;98056.03;4923534;29;20032;-73
2021/05/14 10:22:51;;;;;;;1.48;0.63;;;;;;;17.56;45.19;98067.50;4926415;29;20409;-72
2021/05/14 10:25:49;;;;;;;1.13;0.77;;;;;;;16.62;49.28;98069.19;4926336;29;20102;-73
2021/05/14 10:28:24;;;;;;;2.00;0.65;;;;;;;16.36;50.17;98069.75;4926205;29;20032;-73
2021/05/14 10:31:09;;;;;;;1.08;0.63;;;;;;;15.72;51.65;98062.63;4923374;29;20034;-73
2021/05/14 10:33:42;;;;;;;1.52;0.90;;;;;;;15.92;52.54;98068.53;4926201;29;20067;-74
2021/05/14 10:36:28;;;;;;;1.77;0.60;;;;;;;16.03;52.15;98067.13;4920096;29;20110;-74
2021/05/14 10:39:10;;;;;;;1.58;0.70;;;;;;;16.08;52.18;98063.34;4926194;29;20038;-74
2021/05/14 10:42:02;;;;;;;1.20;0.70;;;;;;;15.65;54.40;98055.06;4925464;29;20031;-74
2021/05/14 10:44:48;;;;;;;0.95;0.50;;;;;;;15.29;58.44;98062.94;4920095;29;20038;-74
2021/05/14 10:47:26;;;;;;;0.50;0.50;;;;;;;14.76;55.98;98057.66;4921763;29;20036;-74
2021/05/14 10:50:03;;;;;;;1.75;0.40;;;;;;;15.13;56.06;98057.63;4924359;29;20071;-74
2021/05/14 10:52:31;;;;;;;0.30;0.30;;;;;;;15.21;53.95;98053.78;4921184;29;20048;-74
2021/05/14 10:54:56;;;;;;;1.15;0.60;;;;;;;16.02;52.47;98053.22;4922570;29;20039;-74
2021/05/14 10:57:40;;;;;;;1.45;0.85;;;;;;;16.47;48.94;98054.31;4919904;29;20597;-74
2021/05/14 11:00:24;;;;;;;1.50;0.52;;;;;;;16.93;44.90;98051.88;4920055;29;20058;-74
2021/05/14 11:03:13;;;;;;;0.77;0.77;;;;;;;19.06;41.46;98047.91;4919914;29;20516;-74
2021/05/14 11:05:41;;;;;;;2.63;1.15;;;;;;;19.06;40.59;98047.91;4915654;29;20091;-74
2021/05/14 11:08:34;;;;;;;0.65;0.50;;;;;;;17.58;43.65;98044.66;4919818;29;20118;-74
2021/05/14 11:11:04;;;;;;;0.80;0.43;;;;;;;18.24;42.25;98051.25;4919766;29;20028;-74
2021/05/14 11:13:49;;;;;;;0.73;0.52;;;;;;;18.12;42.25;98052.84;4925716;29;20039;-74
2021/05/14 11:16:30;;;;;;;2.65;0.60;;;;;;;17.72;44.34;98067.44;4925460;29;20067;-74
2021/05/14 11:18:56;;;;;;;1.13;0.50;;;;;;;17.63;45.33;98068.81;4919877;29;20835;-74
2021/05/14 11:21:21;;;;;;;3.88;0.70;;;;;;;17.00;47.27;98063.69;4919983;29;20118;-74
2021/05/14 11:24:04;;;;;;;1.50;0.80;;;;;;;16.56;48.67;98080.00;4925689;29;20142;-75
2021/05/14 11:26:30;;;;;;;1.15;0.57;;;;;;;15.32;48.71;98088.03;4919429;29;20035;-73
2021/05/14 11:28:55;;;;;;;0.60;0.45;;;;;;;14.51;50.23;98095.28;4919755;29;21001;-73
2021/05/14 11:31:22;;;;;;;1.98;0.43;;;;;;;14.26;56.48;98081.59;4906952;29;20067;-74
2021/05/14 11:33:53;;;;;;;1.00;0.65;;;;;;;14.20;59.56;98072.28;4925469;29;20841;-73
2021/05/14 11:36:19;;;;;;;0.85;0.50;;;;;;;14.43;55.79;98076.50;4925217;29;20035;-73
2021/05/14 11:38:53;;;;;;;1.20;0.65;;;;;;;14.73;58.88;98074.28;4925428;29;20054;-73
2021/05/14 11:41:26;;;;;;;1.67;0.60;;;;;;;15.50;54.12;98061.03;4921683;29;20031;-73
2021/05/14 11:44:00;;;;;;;0.40;0.38;;;;;;;15.88;55.18;98061.75;4928895;29;20047;-74
2021/05/14 11:46:28;;;;;;;3.20;0.80;;;;;;;15.92;52.41;98055.47;4928637;29;20042;-73
2021/05/14 11:48:54;;;;;;;0.50;0.50;;;;;;;17.79;51.92;98046.97;4928917;29;20031;-73
2021/05/14 11:51:20;;;;;;;1.67;0.60;;;;;;;19.36;46.53;98050.31;4924094;29;20032;-73
2021/05/14 11:53:46;;;;;;;1.35;0.75;;;;;;;17.76;48.11;98047.19;4928853;29;20043;-73
2021/05/14 11:56:12;;;;;;;1.90;0.65;;;;;;;18.43;47.06;98045.75;4928726;29;20035;-74
2021/05/14 11:58:39;;;;;;;1.58;0.47;;;;;;;19.04;47.80;98041.06;4928724;29;20031;-74
2021/05/14 12:01:05;;;;;;;0.75;0.50;;;;;;;17.71;45.25;98037.78;4924452;29;20031;-73
2021/05/14 12:03:30;;;;;;;0.60;0.47;;;;;;;18.35;46.82;98040.13;4922814;29;20079;-73
2021/05/14 12:06:06;;;;;;;1.77;0.60;;;;;;;17.93;44.27;98049.63;4928670;29;20040;-74
2021/05/14 12:08:31;;;;;;;0.65;0.60;;;;;;;17.46;44.29;98034.91;4928703;29;20060;-73
2021/05/14 12:11:01;;;;;;;0.70;0.50;;;;;;;18.14;44.98;98022.13;4924527;29;20035;-74
2021/05/14 12:13:29;;;;;;;2.85;0.40;;;;;;;18.41;43.10;98029.22;4928322;29;21018;-74
2021/05/14 12:16:05;;;;;;;0.63;0.52;;;;;;;17.16;44.53;98027.88;4922431;29;20666;-73
2021/05/14 12:18:35;;;;;;;1.13;0.50;;;;;;;17.14;43.47;98019.25;4928149;29;20035;-73
2021/05/14 12:21:06;;;;;;;0.65;0.38;;;;;;;17.93;40.78;98018.16;4922446;29;20034;-74
2021/05/14 12:23:32;;;;;;;0.30;0.30;;;;;;;18.30;39.00;98005.47;4928290;29;20799;-75
2021/05/14 12:26:00;;;;;;;1.00;0.50;;;;;;;18.07;40.04;98010.31;4922511;29;20102;-75
2021/05/14 12:28:46;;;;;;;0.55;0.47;;;;;;;18.35;37.42;98013.88;4922200;29;20162;-75
2021/05/14 12:31:16;;;;;;;0.30;0.30;;;;;;;18.31;37.14;98018.47;4923226;29;20036;-75
2021/05/14 12:33:51;;;;;;;;;;;;;;;18.34;38.53;98012.22;4928398;29;20035;-73
2021/05/14 12:36:34;;;;;;;1.27;0.45;;;;;;;18.67;38.84;98010.09;4921998;29;20352;-73
2021/05/14 12:39:14;;;;;;;0.90;0.40;;;;;;;18.88;36.01;98007.06;4928036;29;20409;-73
2021/05/14 12:41:59;;;;;;;3.72;0.50;;;;;;;17.85;39.12;98007.31;4922392;29;20032;-74
2021/05/14 12:44:28;;;;;;;1.05;0.50;;;;;;;18.17;38.88;97995.72;4922143;29;20055;-73
2021/05/14 12:47:09;;;;;;;2.83;0.40;;;;;;;18.57;39.02;97998.50;4927633;29;20389;-73
2021/05/14 12:49:45;;;;;;;1.58;0.30;;;;;;;18.75;37.78;97997.34;4904769;29;20027;-73
2021/05/14 12:52:33;;;;;;;0.65;0.40;;;;;;;18.75;38.87;97994.72;4921514;29;20047;-73
2021/05/14 12:55:06;;;;;;;1.27;0.50;;;;;;;18.95;37.71;97997.84;4927401;29;20027;-74
2021/05/14 12:57:42;;;;;;;0.73;0.40;;;;;;;18.84;38.22;97984.59;4927556;29;20086;-74
2021/05/14 13:00:19;;;;;;;0.82;0.50;;;;;;;18.61;38.49;97997.34;4925986;29;20088;-74
2021/05/14 13:03:00;;;;;;;1.63;0.60;;;;;;;18.68;37.89;97985.56;4927794;29;21092;-74
2021/05/14 13:05:40;;;;;;;0.60;0.45;;;;;;;18.68;37.96;97993.44;4927605;29;20023;-74
2021/05/14 13:08:13;;;;;;;1.67;0.50;;;;;;;18.87;38.12;97993.13;4921350;29;20463;-73
2021/05/14 13:10:45;;;;;;;2.47;0.93;;;;;;;19.04;39.40;97992.00;4924061;29;20486;-74
2021/05/14 13:13:12;;;;;;;0.98;0.40;;;;;;;18.08;38.61;97998.88;4927445;29;20033;-74
2021/05/14 13:15:37;;;;;;;2.95;0.40;;;;;;;18.54;40.19;97993.44;4925202;29;20520;-73
2021/05/14 13:18:03;;;;;;;0.95;0.30;;;;;;;18.59;37.67;97986.13;4921337;29;20110;-74
2021/05/14 13:20:29;;;;;;;0.98;0.40;;;;;;;18.28;39.57;97987.22;4921196;29;20028;-74
2021/05/14 13:22:54;;;;;;;1.73;0.60;;;;;;;18.74;39.55;97985.16;4921237;29;20031;-74
2021/05/14 13:25:20;;;;;;;0.85;0.50;;;;;;;19.08;37.76;97982.16;4927160;29;20106;-74
2021/05/14 13:27:46;;;;;;;1.27;0.50;;;;;;;18.59;39.62;97985.28;4926780;29;20028;-74
2021/05/14 13:30:12;;;;;;;2.67;0.60;;;;;;;18.79;38.90;97982.25;4926903;29;20042;-74
2021/05/14 13:32:37;;;;;;;1.17;0.60;;;;;;;18.74;38.10;97990.41;4926725;29;20028;-73
2021/05/14 13:35:04;;;;;;;2.92;0.52;;;;;;;19.07;38.00;97986.56;4920911;29;20035;-74
2021/05/14 13:37:30;;;;;;;2.13;0.80;;;;;;;19.13;37.01;97986.16;4926708;29;20038;-74
2021/05/14 13:39:55;;;;;;;2.42;0.60;;;;;;;18.46;38.27;97980.78;4925289;29;20027;-74
2021/05/14 13:42:21;;;;;;;1.10;0.60;;;;;;;19.17;39.13;97979.78;4920825;29;20511;-74
2021/05/14 13:44:46;;;;;;;0.95;0.45;;;;;;;19.08;37.86;97977.75;4920956;29;20101;-74
2021/05/14 13:47:11;;;;;;;1.55;0.50;;;;;;;18.98;38.74;97979.28;4920620;29;20035;-74
2021/05/14 13:49:37;;;;;;;2.42;0.77;;;;;;;19.37;36.86;97983.69;4921672;29;20031;-73
2021/05/14 13:52:03;;;;;;;0.57;0.50;;;;;;;19.51;37.91;97977.53;4923434;29;20039;-74
2021/05/14 13:54:28;;;;;;;1.40;0.50;;;;;;;19.40;37.49;97972.16;4920667;29;20027;-74
2021/05/14 13:56:53;;;;;;;1.27;0.45;;;;;;;19.07;37.39;97970.81;4920379;29;20534;-74
2021/05/14 13:59:19;;;;;;;1.27;0.63;;;;;;;19.08;38.09;97967.25;4920663;29;20032;-74
2021/05/14 14:01:44;;;;;;;0.65;0.38;;;;;;;19.05;36.31;97971.84;4926444;29;20074;-74
2021/05/14 14:04:09;;;;;;;0.68;0.50;;;;;;;18.56;38.23;97960.06;4926410;29;20055;-74
2021/05/14 14:06:35;;;;;;;0.90;0.47;;;;;;;18.60;38.28;97961.56;4926235;29;21054;-74
2021/05/14 14:09:00;;;;;;;1.20;0.60;;;;;;;19.77;36.66;97963.50;4920340;29;20135;-74
2021/05/14 14:11:25;;;;;;;3.50;0.85;;;;;;;20.09;36.58;97949.91;4921266;29;20110;-74
2021/05/14 14:13:51;;;;;;;0.98;0.60;;;;;;;19.92;35.78;97958.13;4926417;29;20397;-74
2021/05/14 14:16:16;;;;;;;1.55;0.63;;;;;;;20.40;35.43;97958.25;4920410;29;20473;-74
2021/05/14 14:18:41;;;;;;;2.25;0.63;;;;;;;20.52;34.50;97960.06;4926379;29;20032;-74
2021/05/14 14:21:07;;;;;;;0.77;0.40;;;;;;;20.45;34.59;97949.09;4921835;29;20091;-74
2021/05/14 14:23:32;;;;;;;0.73;0.40;;;;;;;20.26;34.09;97946.94;4920116;29;20027;-74
2021/05/14 14:25:57;;;;;;;1.13;0.43;;;;;;;20.35;34.34;97945.41;4920526;29;20027;-75
2021/05/14 14:28:23;;;;;;;2.13;0.60;;;;;;;20.49;35.81;97941.84;4920328;29;20457;-74
2021/05/14 14:30:48;;;;;;;1.42;0.63;;;;;;;20.42;37.07;97951.13;4923848;29;20043;-74
2021/05/14 14:33:13;;;;;;;1.30;0.63;;;;;;;20.03;36.31;97956.44;4920089;29;20039;-74
2021/05/14 14:35:39;;;;;;;4.88;0.57;;;;;;;20.00;37.19;97945.28;4925940;29;20032;-74
2021/05/14 14:38:04;;;;;;;1.20;0.52;;;;;;;20.29;37.07;97951.13;4925949;29;20032;-74
2021/05/14 14:40:30;;;;;;;1.98;1.00;;;;;;;20.48;34.93;97955.97;4923405;29;20040;-74
2021/05/14 14:42:55;;;;;;;0.80;0.50;;;;;;;20.36;35.40;97954.19;4920116;29;20032;-74
2021/05/14 14:45:21;;;;;;;1.40;0.40;;;;;;;20.38;36.41;97945.22;4926072;29;20026;-74
2021/05/14 14:47:46;;;;;;;1.95;1.10;;;;;;;20.54;35.01;97939.72;4919934;29;20059;-74
2021/05/14 14:50:13;;;;;;;0.70;0.50;;;;;;;20.27;34.69;97942.53;4923845;29;20449;-74
2021/05/14 14:52:42;;;;;;;4.45;0.60;;;;;;;20.54;33.94;97937.09;4920003;29;20174;-74
2021/05/14 14:55:08;;;;;;;1.92;1.20;;;;;;;19.60;35.58;97947.19;4920006;29;20032;-74
2021/05/14 14:57:33;;;;;;;4.03;0.70;;;;;;;18.93;38.49;97957.75;4925915;29;20035;-74
2021/05/14 14:59:58;;;;;;;1.00;0.73;;;;;;;18.56;39.29;97954.81;4926032;29;20067;-74
2021/05/14 15:02:24;;;;;;;1.27;0.90;;;;;;;18.31;39.66;97959.94;4925863;29;20038;-74
2021/05/14 15:04:49;;;;;;;8.95;0.70;;;;;;;18.23;39.89;97958.63;4925844;29;20028;-74
2021/05/14 15:07:14;;;;;;;0.75;0.50;;;;;;;18.07;40.74;97963.13;4925696;29;20105;-74
2021/05/14 15:09:40;;;;;;;3.10;0.60;;;;;;;18.04;41.50;97962.50;4925878;29;20081;-74
2021/05/14 15:12:05;;;;;;;2.33;0.60;;;;;;;18.01;40.76;97963.50;4925728;29;20032;-74
2021/05/14 15:14:31;;;;;;;2.67;0.98;;;;;;;18.09;42.11;97966.50;4903561;29;20163;-74
2021/05/14 15:16:56;;;;;;;5.43;0.82;;;;;;;17.43;46.43;97977.44;4927713;29;20055;-74
2021/05/14 15:19:22;;;;;;;2.33;0.70;;;;;;;17.06;46.52;97976.94;4923871;29;20498;-74
2021/05/14 15:21:47;;;;;;;1.15;0.98;;;;;;;16.86;52.51;97966.78;4923270;29;20090;-74
2021/05/14 15:24:12;;;;;;;2.53;0.52;;;;;;;16.51;55.22;97972.16;4923673;29;20158;-74
2021/05/14 15:26:38;;;;;;;3.50;0.85;;;;;;;16.69;58.52;97968.53;4924759;29;20031;-74
2021/05/14 15:29:04;;;;;;;1.95;0.60;;;;;;;16.58;56.40;97963.03;4923453;29;20023;-74
2021/05/14 15:31:30;;;;;;;3.05;0.88;;;;;;;16.27;59.93;97966.50;4928900;29;20035;-74
2021/05/14 15:33:55;;;;;;;0.90;0.60;;;;;;;16.29;55.50;97963.81;4923097;29;20500;-74
2021/05/14 15:36:21;;;;;;;2.28;0.80;;;;;;;16.66;59.68;97966.09;4923045;29;20032;-74
2021/05/14 15:38:48;;;;;;;2.72;1.02;;;;;;;16.65;56.16;97959.19;4922974;29;20114;-74
2021/05/14 15:41:14;;;;;;;3.00;0.68;;;;;;;17.07;51.84;97955.09;4924738;29;20130;-74
2021/05/14 15:43:40;;;;;;;1.67;0.82;;;;;;;17.99;49.97;97944.44;4922924;29;20424;-74
2021/05/14 15:46:06;;;;;;;1.48;0.90;;;;;;;17.34;50.26;97947.41;4928742;29;20499;-74
2021/05/14 15:48:35;;;;;;;1.30;0.80;;;;;;;17.88;50.23;97947.69;4925901;29;20036;-74
2021/05/14 15:51:01;;;;;;;2.25;1.05;;;;;;;18.97;44.16;97946.09;4924483;29;20035;-73
2021/05/14 15:53:26;;;;;;;2.83;1.00;;;;;;;19.29;43.25;97948.38;4923086;29;20607;-74